Portada
METAR-TAF:

METAR-TAF

Aeroports :

Asahikawa, Japó

latitud: 43-40N, longitud: 142-27E, altitud: 208 m

Observació

L'informe es va fer fa 1 hora i 1 minuts, a les 17:00 UTC
Vent 2 kt del Oest
Temperatura 5°C
Humitat 81%
Pressió 1018 hPa
Visibilitat 10 km o més

METAR: RJEC 151700Z AUTO 27002KT 9999 NCD 05/02 Q1018

Hora: 03:01 (18:01 UTC)

Pronòstic

L'informe es va fer fa 55 minuts, a les 17:06 UTC
Pronòstic vàlid del 15 a les 18 UTC al 17 a les 00 UTC
Vent 5 kt del Sud
Visibilitat 10 km o més
Escasses núvols a una alçada de 3000 ft

TAF: RJEC 151706Z 1518/1700 17005KT 9999 FEW030

Observacions i pronòstics meteorològics de més de 4000 aeroports (METAR i TAF).

Les estacions disponibles són els punts grocs i vermells al mapa.

Posi el ratolí al punt desitjat per veure el nom de l'estació.

Feu clic per veure les observacions i els pronòstics meteorològics.

Per canviar el mapa: feu clic els botons verds amb una creu de color negre per apropar; al botó verd amb un guió per allunyar la imatge; o en les fletxes verdes per a mapes adjacents.


METAR-TAF: